sensor_id;sensor_type;location;lat;lon;timestamp;pressure;altitude;pressure_sealevel;temperature;humidity
51439;BME280;38816;51.142;-0.974;2023-05-10T00:01:41;99600.63;;;10.17;100.00
51439;BME280;38816;51.142;-0.974;2023-05-10T00:04:07;99588.72;;;10.24;100.00
51439;BME280;38816;51.142;-0.974;2023-05-10T00:06:32;99599.88;;;10.24;100.00
51439;BME280;38816;51.142;-0.974;2023-05-10T00:08:58;99601.56;;;10.24;100.00
51439;BME280;38816;51.142;-0.974;2023-05-10T00:11:23;99602.38;;;10.21;100.00
51439;BME280;38816;51.142;-0.974;2023-05-10T00:13:49;99602.38;;;10.21;100.00
51439;BME280;38816;51.142;-0.974;2023-05-10T00:16:14;99600.75;;;10.31;100.00
51439;BME280;38816;51.142;-0.974;2023-05-10T00:18:40;99581.00;;;10.22;100.00
51439;BME280;38816;51.142;-0.974;2023-05-10T00:21:05;99590.41;;;10.22;100.00
51439;BME280;38816;51.142;-0.974;2023-05-10T00:23:31;99594.78;;;10.29;100.00
51439;BME280;38816;51.142;-0.974;2023-05-10T00:25:56;99592.09;;;10.21;100.00
51439;BME280;38816;51.142;-0.974;2023-05-10T00:28:22;99588.72;;;10.24;100.00
51439;BME280;38816;51.142;-0.974;2023-05-10T00:30:47;99598.22;;;10.35;100.00
51439;BME280;38816;51.142;-0.974;2023-05-10T00:33:13;99599.06;;;10.28;100.00
51439;BME280;38816;51.142;-0.974;2023-05-10T00:35:38;99586.06;;;10.18;100.00
51439;BME280;38816;51.142;-0.974;2023-05-10T00:38:04;99580.13;;;10.20;100.00
51439;BME280;38816;51.142;-0.974;2023-05-10T00:40:29;99601.56;;;10.22;100.00
51439;BME280;38816;51.142;-0.974;2023-05-10T00:42:56;99599.91;;;10.29;100.00
51439;BME280;38816;51.142;-0.974;2023-05-10T00:45:21;99595.59;;;10.25;100.00
51439;BME280;38816;51.142;-0.974;2023-05-10T00:47:47;99595.50;;;10.15;100.00
51439;BME280;38816;51.142;-0.974;2023-05-10T00:50:13;99582.69;;;10.19;100.00
51439;BME280;38816;51.142;-0.974;2023-05-10T00:52:39;99599.03;;;10.25;100.00
51439;BME280;38816;51.142;-0.974;2023-05-10T00:55:06;99609.38;;;10.31;100.00
51439;BME280;38816;51.142;-0.974;2023-05-10T00:57:32;99582.69;;;10.20;100.00
51439;BME280;38816;51.142;-0.974;2023-05-10T00:59:57;99587.88;;;10.26;100.00
51439;BME280;38816;51.142;-0.974;2023-05-10T01:02:23;99584.41;;;10.20;100.00
51439;BME280;38816;51.142;-0.974;2023-05-10T01:04:49;99603.31;;;10.25;100.00
51439;BME280;38816;51.142;-0.974;2023-05-10T01:07:15;99607.59;;;10.24;100.00
51439;BME280;38816;51.142;-0.974;2023-05-10T01:09:40;99607.50;;;10.21;100.00
51439;BME280;38816;51.142;-0.974;2023-05-10T01:12:07;99609.22;;;10.21;100.00
51439;BME280;38816;51.142;-0.974;2023-05-10T01:14:33;99601.59;;;10.25;100.00
51439;BME280;38816;51.142;-0.974;2023-05-10T01:17:00;99600.78;;;10.35;100.00
51439;BME280;38816;51.142;-0.974;2023-05-10T01:19:27;99602.44;;;10.26;100.00
51439;BME280;38816;51.142;-0.974;2023-05-10T01:22:16;99610.97;;;10.23;100.00
51439;BME280;38816;51.142;-0.974;2023-05-10T01:30:55;99608.31;;;10.12;100.00
51439;BME280;38816;51.142;-0.974;2023-05-10T01:36:16;99613.47;;;10.17;100.00
51439;BME280;38816;51.142;-0.974;2023-05-10T01:38:50;99609.19;;;10.16;100.00
51439;BME280;38816;51.142;-0.974;2023-05-10T01:41:36;99611.78;;;10.19;100.00
51439;BME280;38816;51.142;-0.974;2023-05-10T01:44:12;99612.63;;;10.15;100.00
51439;BME280;38816;51.142;-0.974;2023-05-10T01:46:42;99613.44;;;10.09;100.00
51439;BME280;38816;51.142;-0.974;2023-05-10T01:49:24;99630.63;;;10.18;100.00
51439;BME280;38816;51.142;-0.974;2023-05-10T01:51:52;99609.16;;;10.13;100.00
51439;BME280;38816;51.142;-0.974;2023-05-10T01:54:21;99626.34;;;10.22;100.00
51439;BME280;38816;51.142;-0.974;2023-05-10T01:56:52;99628.84;;;10.12;100.00
51439;BME280;38816;51.142;-0.974;2023-05-10T01:59:21;99625.41;;;10.10;100.00
51439;BME280;38816;51.142;-0.974;2023-05-10T02:01:48;99621.97;;;10.05;100.00
51439;BME280;38816;51.142;-0.974;2023-05-10T02:04:16;99628.88;;;10.14;100.00
51439;BME280;38816;51.142;-0.974;2023-05-10T02:06:43;99628.00;;;10.12;100.00
51439;BME280;38816;51.142;-0.974;2023-05-10T02:09:11;99625.38;;;10.04;100.00
51439;BME280;38816;51.142;-0.974;2023-05-10T02:11:42;99620.16;;;9.97;100.00
51439;BME280;38816;51.142;-0.974;2023-05-10T02:14:10;99624.38;;;9.87;100.00
51439;BME280;38816;51.142;-0.974;2023-05-10T02:16:37;99628.53;;;9.76;100.00
51439;BME280;38816;51.142;-0.974;2023-05-10T02:19:04;99647.34;;;9.76;100.00
51439;BME280;38816;51.142;-0.974;2023-05-10T02:21:31;99630.91;;;9.57;100.00
51439;BME280;38816;51.142;-0.974;2023-05-10T02:23:59;99626.47;;;9.44;100.00
51439;BME280;38816;51.142;-0.974;2023-05-10T02:26:27;99647.84;;;9.42;100.00
51439;BME280;38816;51.142;-0.974;2023-05-10T02:28:54;99651.16;;;9.34;100.00
51439;BME280;38816;51.142;-0.974;2023-05-10T02:31:20;99642.50;;;9.23;100.00
51439;BME280;38816;51.142;-0.974;2023-05-10T02:33:46;99652.72;;;9.20;100.00
51439;BME280;38816;51.142;-0.974;2023-05-10T02:36:13;99656.06;;;9.16;100.00
51439;BME280;38816;51.142;-0.974;2023-05-10T02:38:40;99653.44;;;9.10;100.00
51439;BME280;38816;51.142;-0.974;2023-05-10T02:41:07;99644.75;;;8.99;100.00
51439;BME280;38816;51.142;-0.974;2023-05-10T02:43:34;99654.13;;;8.97;100.00
51439;BME280;38816;51.142;-0.974;2023-05-10T02:46:00;99672.16;;;9.03;100.00
51439;BME280;38816;51.142;-0.974;2023-05-10T02:48:26;99673.84;;;9.01;100.00
51439;BME280;38816;51.142;-0.974;2023-05-10T02:50:54;99658.34;;;8.95;100.00
51439;BME280;38816;51.142;-0.974;2023-05-10T02:53:23;99670.38;;;8.97;100.00
51439;BME280;38816;51.142;-0.974;2023-05-10T02:55:52;99678.84;;;8.92;100.00
51439;BME280;38816;51.142;-0.974;2023-05-10T02:58:17;99671.16;;;8.95;100.00
51439;BME280;38816;51.142;-0.974;2023-05-10T03:00:44;99676.38;;;8.99;100.00
51439;BME280;38816;51.142;-0.974;2023-05-10T03:03:11;99676.22;;;8.88;100.00
51439;BME280;38816;51.142;-0.974;2023-05-10T03:05:36;99665.84;;;8.79;100.00
51439;BME280;38816;51.142;-0.974;2023-05-10T03:08:02;99679.50;;;8.78;100.00
51439;BME280;38816;51.142;-0.974;2023-05-10T03:10:30;99673.47;;;8.75;100.00
51439;BME280;38816;51.142;-0.974;2023-05-10T03:13:39;99686.28;;;8.76;100.00
51439;BME280;38816;51.142;-0.974;2023-05-10T03:16:06;99688.00;;;8.76;100.00
51439;BME280;38816;51.142;-0.974;2023-05-10T03:21:09;99680.84;;;8.55;100.00
51439;BME280;38816;51.142;-0.974;2023-05-10T03:23:43;99677.53;;;8.62;100.00
51439;BME280;38816;51.142;-0.974;2023-05-10T03:26:14;99692.91;;;8.62;100.00
51439;BME280;38816;51.142;-0.974;2023-05-10T03:28:42;99693.63;;;8.53;100.00
51439;BME280;38816;51.142;-0.974;2023-05-10T03:31:08;99685.81;;;8.46;100.00
51439;BME280;38816;51.142;-0.974;2023-05-10T03:33:34;99691.00;;;8.49;100.00
51439;BME280;38816;51.142;-0.974;2023-05-10T03:36:00;99694.28;;;8.42;100.00
51439;BME280;38816;51.142;-0.974;2023-05-10T03:38:25;99688.28;;;8.40;100.00
51439;BME280;38816;51.142;-0.974;2023-05-10T03:40:51;99696.81;;;8.39;100.00
51439;BME280;38816;51.142;-0.974;2023-05-10T03:43:16;99690.72;;;8.33;100.00
51439;BME280;38816;51.142;-0.974;2023-05-10T03:45:42;99692.56;;;8.39;100.00
51439;BME280;38816;51.142;-0.974;2023-05-10T03:48:07;99701.09;;;8.40;100.00
51439;BME280;38816;51.142;-0.974;2023-05-10T03:50:32;99695.78;;;8.30;100.00
51439;BME280;38816;51.142;-0.974;2023-05-10T03:52:58;99707.81;;;8.34;100.00
51439;BME280;38816;51.142;-0.974;2023-05-10T03:55:23;99690.47;;;8.18;100.00
51439;BME280;38816;51.142;-0.974;2023-05-10T03:57:49;99715.34;;;8.27;100.00
51439;BME280;38816;51.142;-0.974;2023-05-10T04:00:19;99700.69;;;8.18;100.00
51439;BME280;38816;51.142;-0.974;2023-05-10T04:02:44;99704.97;;;8.18;100.00
51439;BME280;38816;51.142;-0.974;2023-05-10T04:05:09;99699.81;;;8.16;100.00
51439;BME280;38816;51.142;-0.974;2023-05-10T04:07:35;99701.56;;;8.19;100.00
51439;BME280;38816;51.142;-0.974;2023-05-10T04:10:01;99703.41;;;8.27;100.00
51439;BME280;38816;51.142;-0.974;2023-05-10T04:12:26;99714.44;;;8.23;100.00
51439;BME280;38816;51.142;-0.974;2023-05-10T04:14:51;99706.75;;;8.22;100.00
51439;BME280;38816;51.142;-0.974;2023-05-10T04:17:17;99711.22;;;8.33;100.00
51439;BME280;38816;51.142;-0.974;2023-05-10T04:19:42;99716.28;;;8.30;100.00
51439;BME280;38816;51.142;-0.974;2023-05-10T04:22:07;99698.06;;;8.13;100.00
51439;BME280;38816;51.142;-0.974;2023-05-10T04:24:33;99719.63;;;8.26;100.00
51439;BME280;38816;51.142;-0.974;2023-05-10T04:26:58;99722.94;;;8.21;100.00
51439;BME280;38816;51.142;-0.974;2023-05-10T04:29:24;99721.41;;;8.30;100.00
51439;BME280;38816;51.142;-0.974;2023-05-10T04:31:49;99712.66;;;8.19;100.00
51439;BME280;38816;51.142;-0.974;2023-05-10T04:34:15;99717.13;;;8.29;100.00
51439;BME280;38816;51.142;-0.974;2023-05-10T04:36:41;99724.03;;;8.33;100.00
51439;BME280;38816;51.142;-0.974;2023-05-10T04:39:06;99725.84;;;8.38;100.00
51439;BME280;38816;51.142;-0.974;2023-05-10T04:41:32;99722.25;;;8.29;100.00
51439;BME280;38816;51.142;-0.974;2023-05-10T04:43:57;99719.69;;;8.29;100.00
51439;BME280;38816;51.142;-0.974;2023-05-10T04:46:22;99729.16;;;8.33;100.00
51439;BME280;38816;51.142;-0.974;2023-05-10T04:48:48;99732.56;;;8.34;100.00
51439;BME280;38816;51.142;-0.974;2023-05-10T04:51:13;99717.94;;;8.28;100.00
51439;BME280;38816;51.142;-0.974;2023-05-10T04:53:39;99729.16;;;8.33;100.00
51439;BME280;38816;51.142;-0.974;2023-05-10T04:56:04;99719.72;;;8.32;100.00
51439;BME280;38816;51.142;-0.974;2023-05-10T04:58:30;99734.38;;;8.40;100.00
51439;BME280;38816;51.142;-0.974;2023-05-10T05:00:55;99739.53;;;8.41;100.00
51439;BME280;38816;51.142;-0.974;2023-05-10T05:03:20;99744.78;;;8.47;100.00
51439;BME280;38816;51.142;-0.974;2023-05-10T05:05:47;99741.34;;;8.47;100.00
51439;BME280;38816;51.142;-0.974;2023-05-10T05:08:12;99750.94;;;8.58;100.00
51439;BME280;38816;51.142;-0.974;2023-05-10T05:10:38;99741.59;;;8.60;100.00
51439;BME280;38816;51.142;-0.974;2023-05-10T05:13:03;99748.41;;;8.61;100.00
51439;BME280;38816;51.142;-0.974;2023-05-10T05:15:28;99749.22;;;8.59;100.00
51439;BME280;38816;51.142;-0.974;2023-05-10T05:17:55;99743.25;;;8.60;100.00
51439;BME280;38816;51.142;-0.974;2023-05-10T05:20:20;99751.00;;;8.63;100.00
51439;BME280;38816;51.142;-0.974;2023-05-10T05:22:46;99742.50;;;8.66;100.00
51439;BME280;38816;51.142;-0.974;2023-05-10T05:25:11;99758.81;;;8.69;100.00
51439;BME280;38816;51.142;-0.974;2023-05-10T05:27:37;99764.88;;;8.76;100.00
51439;BME280;38816;51.142;-0.974;2023-05-10T05:30:03;99767.59;;;8.85;100.00
51439;BME280;38816;51.142;-0.974;2023-05-10T05:32:29;99758.19;;;8.85;100.00
51439;BME280;38816;51.142;-0.974;2023-05-10T05:34:54;99760.03;;;8.96;100.00
51439;BME280;38816;51.142;-0.974;2023-05-10T05:37:20;99766.06;;;8.96;100.00
51439;BME280;38816;51.142;-0.974;2023-05-10T05:39:49;99770.34;;;8.99;100.00
51439;BME280;38816;51.142;-0.974;2023-05-10T05:42:15;99755.88;;;9.01;100.00
51439;BME280;38816;51.142;-0.974;2023-05-10T05:44:41;99773.16;;;9.14;100.00
51439;BME280;38816;51.142;-0.974;2023-05-10T05:47:07;99766.22;;;9.08;100.00
51439;BME280;38816;51.142;-0.974;2023-05-10T05:49:32;99780.81;;;9.11;100.00
51439;BME280;38816;51.142;-0.974;2023-05-10T05:52:04;99776.53;;;9.13;100.00
51439;BME280;38816;51.142;-0.974;2023-05-10T05:54:30;99771.59;;;9.24;100.00
51439;BME280;38816;51.142;-0.974;2023-05-10T05:56:56;99785.53;;;9.41;100.00
51439;BME280;38816;51.142;-0.974;2023-05-10T05:59:22;99776.13;;;9.45;100.00
51439;BME280;38816;51.142;-0.974;2023-05-10T06:01:47;99782.22;;;9.53;100.00
51439;BME280;38816;51.142;-0.974;2023-05-10T06:04:13;99776.28;;;9.55;100.00
51439;BME280;38816;51.142;-0.974;2023-05-10T06:06:38;99785.88;;;9.72;100.00
51439;BME280;38816;51.142;-0.974;2023-05-10T06:09:03;99797.94;;;9.76;100.00
51439;BME280;38816;51.142;-0.974;2023-05-10T06:11:29;99800.50;;;9.76;100.00
51439;BME280;38816;51.142;-0.974;2023-05-10T06:13:57;99792.72;;;9.68;100.00
51439;BME280;38816;51.142;-0.974;2023-05-10T06:16:22;99813.41;;;9.82;100.00
51439;BME280;38816;51.142;-0.974;2023-05-10T06:18:48;99810.06;;;9.89;100.00
51439;BME280;38816;51.142;-0.974;2023-05-10T06:21:14;99798.13;;;9.91;100.00
51439;BME280;38816;51.142;-0.974;2023-05-10T06:23:40;99806.81;;;10.01;100.00
51439;BME280;38816;51.142;-0.974;2023-05-10T06:26:05;99810.06;;;9.87;100.00
51439;BME280;38816;51.142;-0.974;2023-05-10T06:28:30;99802.34;;;9.87;100.00
51439;BME280;38816;51.142;-0.974;2023-05-10T06:30:57;99808.41;;;9.91;100.00
51439;BME280;38816;51.142;-0.974;2023-05-10T06:33:22;99815.31;;;9.97;100.00
51439;BME280;38816;51.142;-0.974;2023-05-10T06:35:48;99812.88;;;10.09;100.00
51439;BME280;38816;51.142;-0.974;2023-05-10T06:38:13;99820.66;;;10.15;100.00
51439;BME280;38816;51.142;-0.974;2023-05-10T06:40:42;99835.22;;;10.18;100.00
51439;BME280;38816;51.142;-0.974;2023-05-10T06:43:07;99833.53;;;10.20;100.00
51439;BME280;38816;51.142;-0.974;2023-05-10T06:45:33;99838.81;;;10.27;100.00
51439;BME280;38816;51.142;-0.974;2023-05-10T06:47:58;99832.97;;;10.41;100.00
51439;BME280;38816;51.142;-0.974;2023-05-10T06:50:23;99830.50;;;10.50;100.00
51439;BME280;38816;51.142;-0.974;2023-05-10T06:52:49;99841.75;;;10.64;100.00
51439;BME280;38816;51.142;-0.974;2023-05-10T06:55:14;99840.94;;;10.68;100.00
51439;BME280;38816;51.142;-0.974;2023-05-10T06:57:40;99838.34;;;10.67;100.00
51439;BME280;38816;51.142;-0.974;2023-05-10T07:00:06;99844.34;;;10.67;100.00
51439;BME280;38816;51.142;-0.974;2023-05-10T07:02:31;99828.09;;;10.70;100.00
51439;BME280;38816;51.142;-0.974;2023-05-10T07:04:56;99822.09;;;10.69;100.00
51439;BME280;38816;51.142;-0.974;2023-05-10T07:07:22;99829.09;;;10.87;100.00
51439;BME280;38816;51.142;-0.974;2023-05-10T07:09:48;99829.19;;;10.96;100.00
51439;BME280;38816;51.142;-0.974;2023-05-10T07:12:14;99840.31;;;10.95;100.00
51439;BME280;38816;51.142;-0.974;2023-05-10T07:14:40;99834.38;;;11.02;100.00
51439;BME280;38816;51.142;-0.974;2023-05-10T07:17:05;99847.31;;;11.10;100.00
51439;BME280;38816;51.142;-0.974;2023-05-10T07:19:31;99841.25;;;11.05;100.00
51439;BME280;38816;51.142;-0.974;2023-05-10T07:21:57;99842.91;;;10.97;100.00
51439;BME280;38816;51.142;-0.974;2023-05-10T07:24:23;99846.38;;;10.99;100.00
51439;BME280;38816;51.142;-0.974;2023-05-10T07:26:49;99843.84;;;11.06;100.00
51439;BME280;38816;51.142;-0.974;2023-05-10T07:29:14;99859.47;;;11.31;100.00
51439;BME280;38816;51.142;-0.974;2023-05-10T07:31:40;99857.03;;;11.51;100.00
51439;BME280;38816;51.142;-0.974;2023-05-10T07:34:07;99857.97;;;11.62;100.00
51439;BME280;38816;51.142;-0.974;2023-05-10T07:36:33;99863.16;;;11.71;100.00
51439;BME280;38816;51.142;-0.974;2023-05-10T07:38:59;99864.84;;;11.63;100.00
51439;BME280;38816;51.142;-0.974;2023-05-10T07:41:24;99855.38;;;11.59;100.00
51439;BME280;38816;51.142;-0.974;2023-05-10T07:43:49;99857.94;;;11.59;100.00
51439;BME280;38816;51.142;-0.974;2023-05-10T07:46:15;99863.97;;;11.62;100.00
51439;BME280;38816;51.142;-0.974;2023-05-10T07:48:40;99853.69;;;11.69;100.00
51439;BME280;38816;51.142;-0.974;2023-05-10T07:51:06;99849.53;;;11.87;100.00
51439;BME280;38816;51.142;-0.974;2023-05-10T07:53:34;99860.81;;;12.20;100.00
51439;BME280;38816;51.142;-0.974;2023-05-10T07:56:21;99864.34;;;12.34;100.00
51439;BME280;38816;51.142;-0.974;2023-05-10T07:58:46;99865.19;;;12.41;100.00
51439;BME280;38816;51.142;-0.974;2023-05-10T08:01:12;99866.94;;;12.56;100.00
51439;BME280;38816;51.142;-0.974;2023-05-10T08:03:37;99869.53;;;12.48;100.00
51439;BME280;38816;51.142;-0.974;2023-05-10T08:06:03;99860.06;;;12.49;100.00
51439;BME280;38816;51.142;-0.974;2023-05-10T08:08:28;99877.25;;;12.48;100.00
51439;BME280;38816;51.142;-0.974;2023-05-10T08:10:54;99873.78;;;12.41;100.00
51439;BME280;38816;51.142;-0.974;2023-05-10T08:13:19;99859.19;;;12.40;100.00
51439;BME280;38816;51.142;-0.974;2023-05-10T08:15:44;99867.78;;;12.42;100.00
51439;BME280;38816;51.142;-0.974;2023-05-10T08:18:10;99869.56;;;12.71;100.00
51439;BME280;38816;51.142;-0.974;2023-05-10T08:20:35;99873.03;;;12.82;100.00
51439;BME280;38816;51.142;-0.974;2023-05-10T08:23:00;99869.59;;;12.99;100.00
51439;BME280;38816;51.142;-0.974;2023-05-10T08:25:26;99861.00;;;13.13;100.00
51439;BME280;38816;51.142;-0.974;2023-05-10T08:27:51;99868.78;;;13.24;100.00
51439;BME280;38816;51.142;-0.974;2023-05-10T08:30:17;99867.03;;;13.09;100.00
51439;BME280;38816;51.142;-0.974;2023-05-10T08:32:42;99882.53;;;13.28;100.00
51439;BME280;38816;51.142;-0.974;2023-05-10T08:35:07;99883.38;;;13.45;100.00
51439;BME280;38816;51.142;-0.974;2023-05-10T08:37:33;99878.22;;;13.57;100.00
51439;BME280;38816;51.142;-0.974;2023-05-10T08:39:58;99882.50;;;13.71;100.00
51439;BME280;38816;51.142;-0.974;2023-05-10T08:42:26;99881.59;;;13.82;100.00
51439;BME280;38816;51.142;-0.974;2023-05-10T08:44:53;99872.94;;;13.97;100.00
51439;BME280;38816;51.142;-0.974;2023-05-10T08:47:19;99882.44;;;13.89;100.00
51439;BME280;38816;51.142;-0.974;2023-05-10T08:49:47;99873.91;;;13.61;100.00
51439;BME280;38816;51.142;-0.974;2023-05-10T08:52:16;99881.66;;;13.58;100.00
51439;BME280;38816;51.142;-0.974;2023-05-10T08:54:42;99885.06;;;13.78;100.00
51439;BME280;38816;51.142;-0.974;2023-05-10T08:57:09;99869.44;;;14.15;100.00
51439;BME280;38816;51.142;-0.974;2023-05-10T08:59:34;99873.56;;;14.57;100.00
51439;BME280;38816;51.142;-0.974;2023-05-10T09:02:00;99871.06;;;14.34;100.00
51439;BME280;38816;51.142;-0.974;2023-05-10T09:04:27;99875.56;;;13.92;100.00
51439;BME280;38816;51.142;-0.974;2023-05-10T09:06:52;99885.00;;;13.90;100.00
51439;BME280;38816;51.142;-0.974;2023-05-10T09:09:19;99878.06;;;14.05;100.00
51439;BME280;38816;51.142;-0.974;2023-05-10T09:11:45;99884.84;;;14.38;100.00
51439;BME280;38816;51.142;-0.974;2023-05-10T09:14:12;99884.03;;;14.28;100.00
51439;BME280;38816;51.142;-0.974;2023-05-10T09:16:38;99873.78;;;14.07;100.00
51439;BME280;38816;51.142;-0.974;2023-05-10T09:19:03;99890.97;;;14.09;100.00
51439;BME280;38816;51.142;-0.974;2023-05-10T09:21:30;99885.03;;;13.84;100.00
51439;BME280;38816;51.142;-0.974;2023-05-10T09:23:56;99878.19;;;13.68;100.00
51439;BME280;38816;51.142;-0.974;2023-05-10T09:26:22;99885.84;;;13.96;100.00
51439;BME280;38816;51.142;-0.974;2023-05-10T09:28:51;99884.94;;;14.15;100.00
51439;BME280;38816;51.142;-0.974;2023-05-10T09:31:17;99874.56;;;14.24;100.00
51439;BME280;38816;51.142;-0.974;2023-05-10T09:33:49;99879.69;;;14.36;100.00
51439;BME280;38816;51.142;-0.974;2023-05-10T09:36:15;99879.47;;;14.79;100.00
51439;BME280;38816;51.142;-0.974;2023-05-10T09:38:49;99896.41;;;15.23;100.00
51439;BME280;38816;51.142;-0.974;2023-05-10T09:41:19;99876.53;;;15.27;100.00
51439;BME280;38816;51.142;-0.974;2023-05-10T09:43:45;99893.16;;;14.97;100.00
51439;BME280;38816;51.142;-0.974;2023-05-10T09:46:11;99881.16;;;14.86;100.00
51439;BME280;38816;51.142;-0.974;2023-05-10T09:48:47;99884.44;;;15.07;100.00
51439;BME280;38816;51.142;-0.974;2023-05-10T09:51:20;99884.25;;;15.30;100.00
51439;BME280;38816;51.142;-0.974;2023-05-10T09:53:45;99884.03;;;15.56;100.00
51439;BME280;38816;51.142;-0.974;2023-05-10T09:56:11;99885.56;;;15.75;100.00
51439;BME280;38816;51.142;-0.974;2023-05-10T09:58:37;99883.56;;;16.02;100.00
51439;BME280;38816;51.142;-0.974;2023-05-10T10:01:10;99887.81;;;16.09;98.17
51439;BME280;38816;51.142;-0.974;2023-05-10T10:03:41;99889.41;;;16.19;96.38
51439;BME280;38816;51.142;-0.974;2023-05-10T10:06:07;99879.00;;;16.20;92.39
51439;BME280;38816;51.142;-0.974;2023-05-10T10:08:34;99870.22;;;16.32;92.23
51439;BME280;38816;51.142;-0.974;2023-05-10T10:10:59;99883.88;;;16.48;90.77
51439;BME280;38816;51.142;-0.974;2023-05-10T10:13:25;99877.66;;;16.57;96.38
51439;BME280;38816;51.142;-0.974;2023-05-10T10:15:52;99875.97;;;16.56;95.30
51439;BME280;38816;51.142;-0.974;2023-05-10T10:18:18;99860.75;;;16.31;93.78
51439;BME280;38816;51.142;-0.974;2023-05-10T10:20:48;99874.06;;;16.01;87.51
51439;BME280;38816;51.142;-0.974;2023-05-10T10:23:14;99884.50;;;15.96;91.08
51439;BME280;38816;51.142;-0.974;2023-05-10T10:25:39;99882.91;;;15.86;90.60
51439;BME280;38816;51.142;-0.974;2023-05-10T10:28:16;99890.84;;;15.66;91.91
51439;BME280;38816;51.142;-0.974;2023-05-10T10:30:48;99890.78;;;15.74;91.92
51439;BME280;38816;51.142;-0.974;2023-05-10T10:36:05;99875.06;;;15.89;88.40
51439;BME280;38816;51.142;-0.974;2023-05-10T10:38:54;99877.69;;;15.87;88.72
51439;BME280;38816;51.142;-0.974;2023-05-10T10:41:35;99896.78;;;15.79;93.35
51439;BME280;38816;51.142;-0.974;2023-05-10T11:03:05;99866.22;;;16.07;100.00
51439;BME280;38816;51.142;-0.974;2023-05-10T11:05:34;99871.16;;;16.28;100.00
51439;BME280;38816;51.142;-0.974;2023-05-10T11:08:07;99852.75;;;16.48;95.76
51439;BME280;38816;51.142;-0.974;2023-05-10T11:10:32;99861.38;;;16.47;88.76
51439;BME280;38816;51.142;-0.974;2023-05-10T11:13:03;99862.84;;;16.66;90.36
51439;BME280;38816;51.142;-0.974;2023-05-10T11:15:34;99865.91;;;16.93;88.85
51439;BME280;38816;51.142;-0.974;2023-05-10T11:18:00;99864.41;;;16.80;83.86
51439;BME280;38816;51.142;-0.974;2023-05-10T11:20:41;99870.84;;;16.53;89.58
51439;BME280;38816;51.142;-0.974;2023-05-10T11:23:13;99882.78;;;15.95;93.92
51439;BME280;38816;51.142;-0.974;2023-05-10T11:25:42;99881.06;;;15.00;100.00
51439;BME280;38816;51.142;-0.974;2023-05-10T11:28:08;99889.25;;;14.14;100.00
51439;BME280;38816;51.142;-0.974;2023-05-10T11:30:33;99887.69;;;13.64;100.00
51439;BME280;38816;51.142;-0.974;2023-05-10T11:32:59;99896.31;;;13.42;100.00
51439;BME280;38816;51.142;-0.974;2023-05-10T11:35:27;99880.81;;;13.21;100.00
51439;BME280;38816;51.142;-0.974;2023-05-10T11:37:52;99888.53;;;13.21;100.00
51439;BME280;38816;51.142;-0.974;2023-05-10T11:40:18;99888.56;;;13.39;100.00
51439;BME280;38816;51.142;-0.974;2023-05-10T11:42:44;99888.44;;;14.02;100.00
51439;BME280;38816;51.142;-0.974;2023-05-10T11:45:10;99886.41;;;14.74;100.00
51439;BME280;38816;51.142;-0.974;2023-05-10T11:47:36;99882.50;;;15.33;100.00
51439;BME280;38816;51.142;-0.974;2023-05-10T11:50:02;99880.75;;;15.35;100.00
51439;BME280;38816;51.142;-0.974;2023-05-10T11:52:28;99873.19;;;15.11;100.00
51439;BME280;38816;51.142;-0.974;2023-05-10T11:54:54;99895.81;;;14.81;100.00
51439;BME280;38816;51.142;-0.974;2023-05-10T11:57:25;99909.84;;;14.36;100.00
51439;BME280;38816;51.142;-0.974;2023-05-10T11:59:54;99894.56;;;13.16;100.00
51439;BME280;38816;51.142;-0.974;2023-05-10T12:02:22;99900.44;;;12.47;100.00
51439;BME280;38816;51.142;-0.974;2023-05-10T12:04:48;99899.34;;;11.93;100.00
51439;BME280;38816;51.142;-0.974;2023-05-10T12:07:13;99887.09;;;11.55;100.00
51439;BME280;38816;51.142;-0.974;2023-05-10T12:09:44;99896.50;;;11.50;100.00
51439;BME280;38816;51.142;-0.974;2023-05-10T12:12:27;99887.91;;;11.52;100.00
51439;BME280;38816;51.142;-0.974;2023-05-10T12:14:52;99881.09;;;11.59;100.00
51439;BME280;38816;51.142;-0.974;2023-05-10T12:17:18;99882.94;;;11.78;100.00
51439;BME280;38816;51.142;-0.974;2023-05-10T12:19:43;99887.41;;;12.02;100.00
51439;BME280;38816;51.142;-0.974;2023-05-10T12:22:08;99878.00;;;12.15;100.00
51439;BME280;38816;51.142;-0.974;2023-05-10T12:24:37;99882.44;;;12.63;100.00
51439;BME280;38816;51.142;-0.974;2023-05-10T12:27:07;99865.31;;;13.11;100.00
51439;BME280;38816;51.142;-0.974;2023-05-10T12:29:33;99867.00;;;13.66;100.00
51439;BME280;38816;51.142;-0.974;2023-05-10T12:31:59;99872.84;;;14.22;100.00
51439;BME280;38816;51.142;-0.974;2023-05-10T12:34:35;99854.53;;;14.67;100.00
51439;BME280;38816;51.142;-0.974;2023-05-10T12:37:04;99853.28;;;15.19;100.00
51439;BME280;38816;51.142;-0.974;2023-05-10T12:39:43;99855.25;;;15.83;100.00
51439;BME280;38816;51.142;-0.974;2023-05-10T12:42:09;99840.69;;;16.42;100.00
51439;BME280;38816;51.142;-0.974;2023-05-10T12:44:35;99845.97;;;16.96;100.00
51439;BME280;38816;51.142;-0.974;2023-05-10T12:47:02;99844.97;;;17.55;100.00
51439;BME280;38816;51.142;-0.974;2023-05-10T12:49:27;99828.63;;;17.94;100.00
51439;BME280;38816;51.142;-0.974;2023-05-10T12:51:53;99852.66;;;18.07;100.00
51439;BME280;38816;51.142;-0.974;2023-05-10T12:54:18;99848.97;;;17.72;100.00
51439;BME280;38816;51.142;-0.974;2023-05-10T12:56:43;99856.47;;;17.41;100.00
51439;BME280;38816;51.142;-0.974;2023-05-10T12:59:09;99866.00;;;16.88;100.00
51439;BME280;38816;51.142;-0.974;2023-05-10T13:01:34;99852.09;;;16.29;100.00
51439;BME280;38816;51.142;-0.974;2023-05-10T13:04:00;99856.53;;;15.39;100.00
51439;BME280;38816;51.142;-0.974;2023-05-10T13:06:25;99862.28;;;14.69;100.00
51439;BME280;38816;51.142;-0.974;2023-05-10T13:08:50;99873.78;;;14.07;100.00
51439;BME280;38816;51.142;-0.974;2023-05-10T13:11:17;99873.88;;;13.76;100.00
51439;BME280;38816;51.142;-0.974;2023-05-10T13:13:44;99853.94;;;14.15;100.00
51439;BME280;38816;51.142;-0.974;2023-05-10T13:16:10;99852.00;;;14.57;100.00